Stoke-sub-Hamdon, United Kingdom
Current Conditions -  °F | °C
As of 1:50 PM on Sunday 25 Jan 2015 (Local Time) from EGDY Reporting Station
Overcast Overcast  
Wind Chill: 44°   Ceiling: 2600
Heat Index: 48°   Visibility: 6mi
Dew Point: 39°   Wind: 9mph
Humidity: 71%   Direction: 250°WSW
Pressure: 30.42"   Gusts: NA
Location:  50.94°N, 2.76°W
Report Text: EGDY 251350Z AUTO 25008KT 9999 OVC026/// 09/04 Q1030
Loading
Personal Weather Stations






























Interactive Weather Map New forecast layout! Learn more

10-Day Weather Forecast

Advertisements
Track Severe Weather on mobile